sensor_id;sensor_type;location;lat;lon;timestamp;P1;durP1;ratioP1;P2;durP2;ratioP2
26082;SDS011;13848;49.018;12.078;2022-10-18T00:02:13;8.43;;;6.18;;
26082;SDS011;13848;49.018;12.078;2022-10-18T00:04:39;11.10;;;5.80;;
26082;SDS011;13848;49.018;12.078;2022-10-18T00:07:06;12.27;;;6.68;;
26082;SDS011;13848;49.018;12.078;2022-10-18T00:09:32;8.57;;;6.15;;
26082;SDS011;13848;49.018;12.078;2022-10-18T00:11:58;9.85;;;5.78;;
26082;SDS011;13848;49.018;12.078;2022-10-18T00:14:24;10.10;;;5.93;;
26082;SDS011;13848;49.018;12.078;2022-10-18T00:16:51;10.25;;;6.05;;
26082;SDS011;13848;49.018;12.078;2022-10-18T00:19:17;15.13;;;6.18;;
26082;SDS011;13848;49.018;12.078;2022-10-18T00:21:43;9.27;;;6.00;;
26082;SDS011;13848;49.018;12.078;2022-10-18T00:24:09;8.02;;;5.75;;
26082;SDS011;13848;49.018;12.078;2022-10-18T00:26:35;8.82;;;6.05;;
26082;SDS011;13848;49.018;12.078;2022-10-18T00:29:02;8.80;;;6.00;;
26082;SDS011;13848;49.018;12.078;2022-10-18T00:31:30;8.85;;;6.10;;
26082;SDS011;13848;49.018;12.078;2022-10-18T00:33:58;10.55;;;6.38;;
26082;SDS011;13848;49.018;12.078;2022-10-18T00:36:26;12.75;;;5.95;;
26082;SDS011;13848;49.018;12.078;2022-10-18T00:38:53;9.07;;;6.20;;
26082;SDS011;13848;49.018;12.078;2022-10-18T00:41:21;10.52;;;6.63;;
26082;SDS011;13848;49.018;12.078;2022-10-18T00:43:49;9.57;;;5.97;;
26082;SDS011;13848;49.018;12.078;2022-10-18T00:46:16;11.00;;;6.15;;
26082;SDS011;13848;49.018;12.078;2022-10-18T00:48:42;12.15;;;6.10;;
26082;SDS011;13848;49.018;12.078;2022-10-18T00:51:10;8.20;;;5.75;;
26082;SDS011;13848;49.018;12.078;2022-10-18T00:53:36;10.40;;;5.75;;
26082;SDS011;13848;49.018;12.078;2022-10-18T00:56:04;8.27;;;5.72;;
26082;SDS011;13848;49.018;12.078;2022-10-18T00:58:30;8.88;;;6.07;;
26082;SDS011;13848;49.018;12.078;2022-10-18T01:00:56;7.55;;;5.72;;
26082;SDS011;13848;49.018;12.078;2022-10-18T01:03:22;10.38;;;6.07;;
26082;SDS011;13848;49.018;12.078;2022-10-18T01:05:48;10.80;;;5.88;;
26082;SDS011;13848;49.018;12.078;2022-10-18T01:08:26;9.57;;;5.90;;
26082;SDS011;13848;49.018;12.078;2022-10-18T01:11:03;8.75;;;5.50;;
26082;SDS011;13848;49.018;12.078;2022-10-18T01:13:42;7.15;;;5.32;;
26082;SDS011;13848;49.018;12.078;2022-10-18T01:16:20;8.18;;;6.13;;
26082;SDS011;13848;49.018;12.078;2022-10-18T01:18:54;8.10;;;5.43;;
26082;SDS011;13848;49.018;12.078;2022-10-18T01:21:28;8.60;;;5.55;;
26082;SDS011;13848;49.018;12.078;2022-10-18T01:24:21;8.90;;;5.75;;
26082;SDS011;13848;49.018;12.078;2022-10-18T01:27:11;9.25;;;6.20;;
26082;SDS011;13848;49.018;12.078;2022-10-18T01:29:51;11.73;;;6.25;;
26082;SDS011;13848;49.018;12.078;2022-10-18T01:32:26;11.30;;;5.82;;
26082;SDS011;13848;49.018;12.078;2022-10-18T01:34:58;8.73;;;5.95;;
26082;SDS011;13848;49.018;12.078;2022-10-18T01:37:27;8.15;;;6.18;;
26082;SDS011;13848;49.018;12.078;2022-10-18T01:39:55;9.57;;;5.13;;
26082;SDS011;13848;49.018;12.078;2022-10-18T01:42:23;11.65;;;6.05;;
26082;SDS011;13848;49.018;12.078;2022-10-18T01:44:51;9.00;;;5.15;;
26082;SDS011;13848;49.018;12.078;2022-10-18T01:47:18;8.00;;;5.38;;
26082;SDS011;13848;49.018;12.078;2022-10-18T01:49:47;9.75;;;4.90;;
26082;SDS011;13848;49.018;12.078;2022-10-18T01:52:13;6.47;;;5.32;;
26082;SDS011;13848;49.018;12.078;2022-10-18T01:54:41;10.60;;;5.60;;
26082;SDS011;13848;49.018;12.078;2022-10-18T01:57:11;10.18;;;5.00;;
26082;SDS011;13848;49.018;12.078;2022-10-18T01:59:46;10.68;;;5.40;;
26082;SDS011;13848;49.018;12.078;2022-10-18T02:02:25;7.05;;;5.20;;
26082;SDS011;13848;49.018;12.078;2022-10-18T02:05:00;11.52;;;5.30;;
26082;SDS011;13848;49.018;12.078;2022-10-18T02:07:31;8.20;;;5.07;;
26082;SDS011;13848;49.018;12.078;2022-10-18T02:10:02;11.63;;;5.43;;
26082;SDS011;13848;49.018;12.078;2022-10-18T02:12:34;8.90;;;5.78;;
26082;SDS011;13848;49.018;12.078;2022-10-18T02:15:02;9.13;;;5.63;;
26082;SDS011;13848;49.018;12.078;2022-10-18T02:17:30;11.35;;;5.25;;
26082;SDS011;13848;49.018;12.078;2022-10-18T02:19:57;7.28;;;4.97;;
26082;SDS011;13848;49.018;12.078;2022-10-18T02:22:27;10.57;;;4.97;;
26082;SDS011;13848;49.018;12.078;2022-10-18T02:24:56;10.82;;;5.20;;
26082;SDS011;13848;49.018;12.078;2022-10-18T02:27:26;11.27;;;5.55;;
26082;SDS011;13848;49.018;12.078;2022-10-18T02:29:53;10.68;;;5.35;;
26082;SDS011;13848;49.018;12.078;2022-10-18T02:32:20;9.10;;;5.03;;
26082;SDS011;13848;49.018;12.078;2022-10-18T02:34:56;8.77;;;5.40;;
26082;SDS011;13848;49.018;12.078;2022-10-18T02:37:26;6.40;;;5.13;;
26082;SDS011;13848;49.018;12.078;2022-10-18T02:39:55;10.40;;;5.55;;
26082;SDS011;13848;49.018;12.078;2022-10-18T02:42:21;7.32;;;5.30;;
26082;SDS011;13848;49.018;12.078;2022-10-18T02:44:47;10.15;;;5.35;;
26082;SDS011;13848;49.018;12.078;2022-10-18T02:47:13;9.65;;;5.35;;
26082;SDS011;13848;49.018;12.078;2022-10-18T02:49:39;10.27;;;5.38;;
26082;SDS011;13848;49.018;12.078;2022-10-18T02:52:05;10.13;;;5.55;;
26082;SDS011;13848;49.018;12.078;2022-10-18T02:54:33;8.50;;;5.22;;
26082;SDS011;13848;49.018;12.078;2022-10-18T02:56:58;9.75;;;6.05;;
26082;SDS011;13848;49.018;12.078;2022-10-18T02:59:24;12.05;;;6.45;;
26082;SDS011;13848;49.018;12.078;2022-10-18T03:01:50;10.32;;;6.70;;
26082;SDS011;13848;49.018;12.078;2022-10-18T03:04:16;12.02;;;6.50;;
26082;SDS011;13848;49.018;12.078;2022-10-18T03:06:42;12.23;;;6.45;;
26082;SDS011;13848;49.018;12.078;2022-10-18T03:09:08;13.75;;;7.10;;
26082;SDS011;13848;49.018;12.078;2022-10-18T03:11:36;13.02;;;7.22;;
26082;SDS011;13848;49.018;12.078;2022-10-18T03:14:02;14.02;;;7.05;;
26082;SDS011;13848;49.018;12.078;2022-10-18T03:16:28;16.13;;;7.70;;
26082;SDS011;13848;49.018;12.078;2022-10-18T03:18:54;13.20;;;8.00;;
26082;SDS011;13848;49.018;12.078;2022-10-18T03:21:20;14.65;;;8.07;;
26082;SDS011;13848;49.018;12.078;2022-10-18T03:23:46;16.08;;;8.38;;
26082;SDS011;13848;49.018;12.078;2022-10-18T03:26:12;16.83;;;8.00;;
26082;SDS011;13848;49.018;12.078;2022-10-18T03:28:39;15.00;;;8.60;;
26082;SDS011;13848;49.018;12.078;2022-10-18T03:31:05;15.38;;;8.38;;
26082;SDS011;13848;49.018;12.078;2022-10-18T03:33:31;15.75;;;8.63;;
26082;SDS011;13848;49.018;12.078;2022-10-18T03:35:57;17.83;;;8.43;;
26082;SDS011;13848;49.018;12.078;2022-10-18T03:38:24;20.95;;;9.77;;
26082;SDS011;13848;49.018;12.078;2022-10-18T03:40:50;19.75;;;9.73;;
26082;SDS011;13848;49.018;12.078;2022-10-18T03:43:16;17.25;;;8.68;;
26082;SDS011;13848;49.018;12.078;2022-10-18T03:45:43;17.30;;;8.68;;
26082;SDS011;13848;49.018;12.078;2022-10-18T03:48:09;16.75;;;8.45;;
26082;SDS011;13848;49.018;12.078;2022-10-18T03:50:35;22.63;;;9.48;;
26082;SDS011;13848;49.018;12.078;2022-10-18T03:53:01;22.85;;;9.93;;
26082;SDS011;13848;49.018;12.078;2022-10-18T03:55:27;20.08;;;10.50;;
26082;SDS011;13848;49.018;12.078;2022-10-18T03:57:53;18.90;;;10.25;;
26082;SDS011;13848;49.018;12.078;2022-10-18T04:00:19;22.25;;;9.98;;
26082;SDS011;13848;49.018;12.078;2022-10-18T04:02:47;23.90;;;10.55;;
26082;SDS011;13848;49.018;12.078;2022-10-18T04:05:13;20.77;;;10.55;;
26082;SDS011;13848;49.018;12.078;2022-10-18T04:07:39;24.50;;;10.38;;
26082;SDS011;13848;49.018;12.078;2022-10-18T04:10:06;24.13;;;10.90;;
26082;SDS011;13848;49.018;12.078;2022-10-18T04:12:32;19.27;;;10.50;;
26082;SDS011;13848;49.018;12.078;2022-10-18T04:14:58;19.92;;;10.27;;
26082;SDS011;13848;49.018;12.078;2022-10-18T04:17:24;24.58;;;11.18;;
26082;SDS011;13848;49.018;12.078;2022-10-18T04:19:51;23.40;;;10.90;;
26082;SDS011;13848;49.018;12.078;2022-10-18T04:22:17;20.75;;;10.10;;
26082;SDS011;13848;49.018;12.078;2022-10-18T04:24:43;20.70;;;10.73;;
26082;SDS011;13848;49.018;12.078;2022-10-18T04:27:09;23.80;;;10.63;;
26082;SDS011;13848;49.018;12.078;2022-10-18T04:29:35;18.52;;;9.82;;
26082;SDS011;13848;49.018;12.078;2022-10-18T04:32:01;22.33;;;11.02;;
26082;SDS011;13848;49.018;12.078;2022-10-18T04:34:27;21.42;;;11.18;;
26082;SDS011;13848;49.018;12.078;2022-10-18T04:36:55;25.20;;;10.95;;
26082;SDS011;13848;49.018;12.078;2022-10-18T04:39:20;26.35;;;11.85;;
26082;SDS011;13848;49.018;12.078;2022-10-18T04:41:46;22.73;;;10.98;;
26082;SDS011;13848;49.018;12.078;2022-10-18T04:44:12;20.02;;;11.35;;
26082;SDS011;13848;49.018;12.078;2022-10-18T04:46:38;18.88;;;10.18;;
26082;SDS011;13848;49.018;12.078;2022-10-18T04:49:04;21.13;;;9.98;;
26082;SDS011;13848;49.018;12.078;2022-10-18T04:51:30;20.40;;;10.18;;
26082;SDS011;13848;49.018;12.078;2022-10-18T04:53:58;20.60;;;10.23;;
26082;SDS011;13848;49.018;12.078;2022-10-18T04:56:24;29.45;;;11.52;;
26082;SDS011;13848;49.018;12.078;2022-10-18T04:58:50;24.15;;;11.50;;
26082;SDS011;13848;49.018;12.078;2022-10-18T05:01:16;23.58;;;10.98;;
26082;SDS011;13848;49.018;12.078;2022-10-18T05:03:42;21.23;;;11.88;;
26082;SDS011;13848;49.018;12.078;2022-10-18T05:06:08;22.58;;;11.55;;
26082;SDS011;13848;49.018;12.078;2022-10-18T05:08:34;21.65;;;11.10;;
26082;SDS011;13848;49.018;12.078;2022-10-18T05:11:02;26.13;;;11.40;;
26082;SDS011;13848;49.018;12.078;2022-10-18T05:13:29;27.15;;;12.38;;
26082;SDS011;13848;49.018;12.078;2022-10-18T05:15:55;26.17;;;12.18;;
26082;SDS011;13848;49.018;12.078;2022-10-18T05:18:21;22.85;;;12.75;;
26082;SDS011;13848;49.018;12.078;2022-10-18T05:20:47;28.25;;;12.77;;
26082;SDS011;13848;49.018;12.078;2022-10-18T05:23:13;29.10;;;13.48;;
26082;SDS011;13848;49.018;12.078;2022-10-18T05:25:39;26.58;;;12.48;;
26082;SDS011;13848;49.018;12.078;2022-10-18T05:28:07;22.40;;;12.15;;
26082;SDS011;13848;49.018;12.078;2022-10-18T05:30:35;27.48;;;12.32;;
26082;SDS011;13848;49.018;12.078;2022-10-18T05:33:02;24.15;;;12.70;;
26082;SDS011;13848;49.018;12.078;2022-10-18T05:35:28;28.27;;;12.23;;
26082;SDS011;13848;49.018;12.078;2022-10-18T05:37:54;22.48;;;12.50;;
26082;SDS011;13848;49.018;12.078;2022-10-18T05:40:20;21.33;;;12.38;;
26082;SDS011;13848;49.018;12.078;2022-10-18T05:42:46;20.90;;;12.18;;
26082;SDS011;13848;49.018;12.078;2022-10-18T05:45:13;24.35;;;11.82;;
26082;SDS011;13848;49.018;12.078;2022-10-18T05:47:39;19.90;;;12.00;;
26082;SDS011;13848;49.018;12.078;2022-10-18T05:50:05;24.42;;;12.52;;
26082;SDS011;13848;49.018;12.078;2022-10-18T05:52:31;20.85;;;11.75;;
26082;SDS011;13848;49.018;12.078;2022-10-18T05:54:57;21.33;;;12.07;;
26082;SDS011;13848;49.018;12.078;2022-10-18T05:57:23;23.73;;;11.25;;
26082;SDS011;13848;49.018;12.078;2022-10-18T05:59:49;21.67;;;10.73;;
26082;SDS011;13848;49.018;12.078;2022-10-18T06:02:16;19.05;;;11.77;;
26082;SDS011;13848;49.018;12.078;2022-10-18T06:04:42;18.63;;;11.13;;
26082;SDS011;13848;49.018;12.078;2022-10-18T06:07:09;16.92;;;11.23;;
26082;SDS011;13848;49.018;12.078;2022-10-18T06:09:35;18.08;;;10.82;;
26082;SDS011;13848;49.018;12.078;2022-10-18T06:12:01;15.75;;;9.75;;
26082;SDS011;13848;49.018;12.078;2022-10-18T06:14:28;16.40;;;11.02;;
26082;SDS011;13848;49.018;12.078;2022-10-18T06:16:54;21.48;;;11.55;;
26082;SDS011;13848;49.018;12.078;2022-10-18T06:19:21;19.05;;;11.45;;
26082;SDS011;13848;49.018;12.078;2022-10-18T06:21:48;18.83;;;12.32;;
26082;SDS011;13848;49.018;12.078;2022-10-18T06:24:14;19.55;;;11.18;;
26082;SDS011;13848;49.018;12.078;2022-10-18T06:26:40;20.02;;;10.98;;
26082;SDS011;13848;49.018;12.078;2022-10-18T06:29:06;19.30;;;12.23;;
26082;SDS011;13848;49.018;12.078;2022-10-18T06:31:32;20.02;;;11.68;;
26082;SDS011;13848;49.018;12.078;2022-10-18T06:33:58;17.60;;;11.60;;
26082;SDS011;13848;49.018;12.078;2022-10-18T06:36:25;19.48;;;12.15;;
26082;SDS011;13848;49.018;12.078;2022-10-18T06:38:52;18.13;;;11.52;;
26082;SDS011;13848;49.018;12.078;2022-10-18T06:41:18;17.73;;;10.70;;
26082;SDS011;13848;49.018;12.078;2022-10-18T06:43:46;24.20;;;12.13;;
26082;SDS011;13848;49.018;12.078;2022-10-18T06:46:13;17.50;;;11.35;;
26082;SDS011;13848;49.018;12.078;2022-10-18T06:48:38;19.63;;;11.40;;
26082;SDS011;13848;49.018;12.078;2022-10-18T06:51:05;17.42;;;11.00;;
26082;SDS011;13848;49.018;12.078;2022-10-18T06:53:34;20.02;;;12.25;;
26082;SDS011;13848;49.018;12.078;2022-10-18T06:56:02;17.75;;;10.93;;
26082;SDS011;13848;49.018;12.078;2022-10-18T06:58:29;19.02;;;12.18;;
26082;SDS011;13848;49.018;12.078;2022-10-18T07:00:55;18.33;;;10.95;;
26082;SDS011;13848;49.018;12.078;2022-10-18T07:03:22;19.67;;;11.38;;
26082;SDS011;13848;49.018;12.078;2022-10-18T07:05:48;17.15;;;10.88;;
26082;SDS011;13848;49.018;12.078;2022-10-18T07:08:14;16.95;;;10.35;;
26082;SDS011;13848;49.018;12.078;2022-10-18T07:10:41;20.08;;;11.30;;
26082;SDS011;13848;49.018;12.078;2022-10-18T07:13:14;18.77;;;11.30;;
26082;SDS011;13848;49.018;12.078;2022-10-18T07:15:40;16.65;;;10.63;;
26082;SDS011;13848;49.018;12.078;2022-10-18T07:18:06;20.52;;;11.05;;
26082;SDS011;13848;49.018;12.078;2022-10-18T07:20:32;19.67;;;10.55;;
26082;SDS011;13848;49.018;12.078;2022-10-18T07:22:58;18.70;;;11.52;;
26082;SDS011;13848;49.018;12.078;2022-10-18T07:25:24;16.88;;;10.23;;
26082;SDS011;13848;49.018;12.078;2022-10-18T07:27:51;18.38;;;11.25;;
26082;SDS011;13848;49.018;12.078;2022-10-18T07:30:17;19.60;;;10.93;;
26082;SDS011;13848;49.018;12.078;2022-10-18T07:32:43;19.65;;;11.27;;
26082;SDS011;13848;49.018;12.078;2022-10-18T07:35:09;24.67;;;11.88;;
26082;SDS011;13848;49.018;12.078;2022-10-18T07:37:36;18.50;;;11.50;;
26082;SDS011;13848;49.018;12.078;2022-10-18T07:40:02;21.25;;;12.10;;
26082;SDS011;13848;49.018;12.078;2022-10-18T07:42:28;21.23;;;11.73;;
26082;SDS011;13848;49.018;12.078;2022-10-18T07:44:55;18.95;;;11.40;;
26082;SDS011;13848;49.018;12.078;2022-10-18T07:47:21;19.48;;;11.32;;
26082;SDS011;13848;49.018;12.078;2022-10-18T07:49:47;19.60;;;11.35;;
26082;SDS011;13848;49.018;12.078;2022-10-18T07:52:13;21.20;;;11.50;;
26082;SDS011;13848;49.018;12.078;2022-10-18T07:54:39;19.90;;;11.90;;
26082;SDS011;13848;49.018;12.078;2022-10-18T07:57:05;22.63;;;12.43;;
26082;SDS011;13848;49.018;12.078;2022-10-18T07:59:31;25.98;;;12.30;;
26082;SDS011;13848;49.018;12.078;2022-10-18T08:01:59;19.50;;;11.65;;
26082;SDS011;13848;49.018;12.078;2022-10-18T08:04:26;24.23;;;13.25;;
26082;SDS011;13848;49.018;12.078;2022-10-18T08:06:52;20.90;;;11.52;;
26082;SDS011;13848;49.018;12.078;2022-10-18T08:09:18;22.05;;;12.60;;
26082;SDS011;13848;49.018;12.078;2022-10-18T08:11:44;22.55;;;11.82;;
26082;SDS011;13848;49.018;12.078;2022-10-18T08:14:10;23.55;;;11.90;;
26082;SDS011;13848;49.018;12.078;2022-10-18T08:16:36;23.77;;;12.27;;
26082;SDS011;13848;49.018;12.078;2022-10-18T08:19:03;21.48;;;10.90;;
26082;SDS011;13848;49.018;12.078;2022-10-18T08:21:29;24.20;;;11.60;;
26082;SDS011;13848;49.018;12.078;2022-10-18T08:23:56;23.80;;;11.95;;
26082;SDS011;13848;49.018;12.078;2022-10-18T08:26:23;20.67;;;11.25;;
26082;SDS011;13848;49.018;12.078;2022-10-18T08:28:49;23.02;;;11.55;;
26082;SDS011;13848;49.018;12.078;2022-10-18T08:31:16;21.70;;;12.02;;
26082;SDS011;13848;49.018;12.078;2022-10-18T08:33:43;25.48;;;12.05;;
26082;SDS011;13848;49.018;12.078;2022-10-18T08:36:12;22.75;;;12.05;;
26082;SDS011;13848;49.018;12.078;2022-10-18T08:38:39;20.25;;;11.30;;
26082;SDS011;13848;49.018;12.078;2022-10-18T08:41:14;22.02;;;11.40;;
26082;SDS011;13848;49.018;12.078;2022-10-18T08:43:54;20.67;;;11.73;;
26082;SDS011;13848;49.018;12.078;2022-10-18T08:46:23;22.20;;;11.90;;
26082;SDS011;13848;49.018;12.078;2022-10-18T08:48:50;21.67;;;11.95;;
26082;SDS011;13848;49.018;12.078;2022-10-18T08:51:23;20.30;;;11.57;;
26082;SDS011;13848;49.018;12.078;2022-10-18T08:53:58;21.60;;;12.15;;
26082;SDS011;13848;49.018;12.078;2022-10-18T08:56:29;20.17;;;11.68;;
26082;SDS011;13848;49.018;12.078;2022-10-18T08:58:57;22.27;;;12.13;;
26082;SDS011;13848;49.018;12.078;2022-10-18T09:01:24;22.65;;;11.57;;
26082;SDS011;13848;49.018;12.078;2022-10-18T09:04:08;24.10;;;12.82;;
26082;SDS011;13848;49.018;12.078;2022-10-18T09:06:51;23.23;;;11.45;;
26082;SDS011;13848;49.018;12.078;2022-10-18T09:09:25;21.88;;;12.02;;
26082;SDS011;13848;49.018;12.078;2022-10-18T09:12:01;22.75;;;11.93;;
26082;SDS011;13848;49.018;12.078;2022-10-18T09:14:44;19.55;;;11.60;;
26082;SDS011;13848;49.018;12.078;2022-10-18T09:17:24;23.90;;;12.38;;
26082;SDS011;13848;49.018;12.078;2022-10-18T09:19:58;19.40;;;12.00;;
26082;SDS011;13848;49.018;12.078;2022-10-18T09:22:40;25.30;;;12.73;;
26082;SDS011;13848;49.018;12.078;2022-10-18T09:25:16;22.40;;;12.93;;
26082;SDS011;13848;49.018;12.078;2022-10-18T09:27:47;23.35;;;11.88;;
26082;SDS011;13848;49.018;12.078;2022-10-18T09:30:27;21.05;;;12.45;;
26082;SDS011;13848;49.018;12.078;2022-10-18T09:33:05;20.42;;;12.82;;
26082;SDS011;13848;49.018;12.078;2022-10-18T09:35:41;21.35;;;12.15;;
26082;SDS011;13848;49.018;12.078;2022-10-18T09:38:15;22.98;;;13.02;;
26082;SDS011;13848;49.018;12.078;2022-10-18T09:40:46;19.52;;;12.45;;
26082;SDS011;13848;49.018;12.078;2022-10-18T09:43:17;21.33;;;12.90;;
26082;SDS011;13848;49.018;12.078;2022-10-18T09:45:47;22.58;;;12.80;;
26082;SDS011;13848;49.018;12.078;2022-10-18T09:48:16;23.15;;;13.25;;
26082;SDS011;13848;49.018;12.078;2022-10-18T09:50:47;18.50;;;12.82;;
26082;SDS011;13848;49.018;12.078;2022-10-18T09:53:20;22.70;;;13.35;;
26082;SDS011;13848;49.018;12.078;2022-10-18T09:55:57;24.27;;;13.23;;
26082;SDS011;13848;49.018;12.078;2022-10-18T09:58:25;21.60;;;12.35;;
26082;SDS011;13848;49.018;12.078;2022-10-18T10:01:04;21.90;;;13.27;;
26082;SDS011;13848;49.018;12.078;2022-10-18T10:03:30;23.13;;;12.98;;
26082;SDS011;13848;49.018;12.078;2022-10-18T10:06:02;19.75;;;12.90;;
26082;SDS011;13848;49.018;12.078;2022-10-18T10:08:42;22.60;;;13.52;;
26082;SDS011;13848;49.018;12.078;2022-10-18T10:13:55;22.83;;;13.50;;
26082;SDS011;13848;49.018;12.078;2022-10-18T10:16:22;19.63;;;12.77;;
26082;SDS011;13848;49.018;12.078;2022-10-18T10:18:51;20.15;;;13.50;;
26082;SDS011;13848;49.018;12.078;2022-10-18T10:21:18;22.58;;;12.77;;
26082;SDS011;13848;49.018;12.078;2022-10-18T10:23:58;20.77;;;12.50;;
26082;SDS011;13848;49.018;12.078;2022-10-18T10:26:26;20.10;;;12.40;;
26082;SDS011;13848;49.018;12.078;2022-10-18T10:28:55;21.95;;;13.20;;
26082;SDS011;13848;49.018;12.078;2022-10-18T10:31:25;19.98;;;12.60;;
26082;SDS011;13848;49.018;12.078;2022-10-18T10:33:57;20.73;;;13.63;;
26082;SDS011;13848;49.018;12.078;2022-10-18T10:36:25;22.90;;;13.20;;
26082;SDS011;13848;49.018;12.078;2022-10-18T10:39:02;23.73;;;13.20;;
26082;SDS011;13848;49.018;12.078;2022-10-18T10:41:30;19.25;;;13.38;;
26082;SDS011;13848;49.018;12.078;2022-10-18T10:43:57;20.88;;;13.65;;
26082;SDS011;13848;49.018;12.078;2022-10-18T10:46:32;20.88;;;13.52;;
26082;SDS011;13848;49.018;12.078;2022-10-18T10:51:29;21.30;;;12.50;;
26082;SDS011;13848;49.018;12.078;2022-10-18T10:53:57;21.10;;;12.52;;
26082;SDS011;13848;49.018;12.078;2022-10-18T10:56:27;17.90;;;12.13;;
26082;SDS011;13848;49.018;12.078;2022-10-18T10:58:56;21.02;;;13.10;;
26082;SDS011;13848;49.018;12.078;2022-10-18T11:01:27;21.15;;;11.93;;
26082;SDS011;13848;49.018;12.078;2022-10-18T11:03:57;20.20;;;12.23;;
26082;SDS011;13848;49.018;12.078;2022-10-18T11:06:27;16.50;;;11.45;;
26082;SDS011;13848;49.018;12.078;2022-10-18T11:09:13;18.08;;;12.40;;
26082;SDS011;13848;49.018;12.078;2022-10-18T11:11:51;17.15;;;12.13;;
26082;SDS011;13848;49.018;12.078;2022-10-18T11:14:24;17.92;;;12.23;;
26082;SDS011;13848;49.018;12.078;2022-10-18T11:16:55;16.98;;;11.85;;
26082;SDS011;13848;49.018;12.078;2022-10-18T11:19:36;20.80;;;12.20;;
26082;SDS011;13848;49.018;12.078;2022-10-18T11:22:08;19.67;;;12.50;;
26082;SDS011;13848;49.018;12.078;2022-10-18T11:24:39;18.67;;;12.23;;
26082;SDS011;13848;49.018;12.078;2022-10-18T11:27:08;15.40;;;11.70;;
26082;SDS011;13848;49.018;12.078;2022-10-18T11:29:45;29.92;;;12.30;;
26082;SDS011;13848;49.018;12.078;2022-10-18T11:32:24;19.75;;;13.07;;
26082;SDS011;13848;49.018;12.078;2022-10-18T11:35:00;19.98;;;13.07;;
26082;SDS011;13848;49.018;12.078;2022-10-18T11:37:39;19.52;;;13.20;;
26082;SDS011;13848;49.018;12.078;2022-10-18T11:40:29;18.50;;;12.85;;
26082;SDS011;13848;49.018;12.078;2022-10-18T11:43:09;19.77;;;13.65;;
26082;SDS011;13848;49.018;12.078;2022-10-18T11:45:42;17.58;;;11.85;;
26082;SDS011;13848;49.018;12.078;2022-10-18T11:48:24;21.33;;;13.25;;
26082;SDS011;13848;49.018;12.078;2022-10-18T11:51:03;18.55;;;13.40;;
26082;SDS011;13848;49.018;12.078;2022-10-18T11:53:37;19.48;;;11.75;;
26082;SDS011;13848;49.018;12.078;2022-10-18T11:56:10;17.52;;;11.85;;
26082;SDS011;13848;49.018;12.078;2022-10-18T11:58:49;21.55;;;13.63;;
26082;SDS011;13848;49.018;12.078;2022-10-18T12:01:29;18.17;;;12.90;;
26082;SDS011;13848;49.018;12.078;2022-10-18T12:04:02;20.48;;;12.32;;
26082;SDS011;13848;49.018;12.078;2022-10-18T12:06:35;19.58;;;13.15;;
26082;SDS011;13848;49.018;12.078;2022-10-18T12:09:04;22.75;;;14.18;;
26082;SDS011;13848;49.018;12.078;2022-10-18T12:11:36;18.65;;;13.10;;
26082;SDS011;13848;49.018;12.078;2022-10-18T12:14:13;19.48;;;12.70;;
26082;SDS011;13848;49.018;12.078;2022-10-18T12:16:47;22.40;;;13.80;;
26082;SDS011;13848;49.018;12.078;2022-10-18T12:19:15;19.55;;;12.82;;
26082;SDS011;13848;49.018;12.078;2022-10-18T12:21:44;22.33;;;13.00;;
26082;SDS011;13848;49.018;12.078;2022-10-18T12:24:13;20.67;;;12.85;;
26082;SDS011;13848;49.018;12.078;2022-10-18T12:26:41;19.00;;;13.02;;
26082;SDS011;13848;49.018;12.078;2022-10-18T12:29:11;18.90;;;12.52;;
26082;SDS011;13848;49.018;12.078;2022-10-18T12:31:44;27.50;;;13.20;;
26082;SDS011;13848;49.018;12.078;2022-10-18T12:37:13;18.67;;;12.93;;
26082;SDS011;13848;49.018;12.078;2022-10-18T12:39:50;16.73;;;11.88;;
26082;SDS011;13848;49.018;12.078;2022-10-18T12:42:21;16.67;;;12.52;;
26082;SDS011;13848;49.018;12.078;2022-10-18T12:45:00;21.20;;;11.95;;
26082;SDS011;13848;49.018;12.078;2022-10-18T12:47:28;19.17;;;12.02;;
26082;SDS011;13848;49.018;12.078;2022-10-18T12:49:56;18.25;;;12.43;;
26082;SDS011;13848;49.018;12.078;2022-10-18T12:52:25;16.30;;;11.90;;
26082;SDS011;13848;49.018;12.078;2022-10-18T12:55:05;16.85;;;11.65;;
26082;SDS011;13848;49.018;12.078;2022-10-18T12:58:02;16.17;;;11.63;;
26082;SDS011;13848;49.018;12.078;2022-10-18T13:09:17;19.42;;;11.13;;
26082;SDS011;13848;49.018;12.078;2022-10-18T13:11:45;18.33;;;10.98;;
26082;SDS011;13848;49.018;12.078;2022-10-18T13:14:20;15.50;;;11.10;;
26082;SDS011;13848;49.018;12.078;2022-10-18T13:16:58;14.95;;;11.15;;
26082;SDS011;13848;49.018;12.078;2022-10-18T13:19:32;14.45;;;9.98;;
26082;SDS011;13848;49.018;12.078;2022-10-18T13:22:12;16.02;;;11.02;;
26082;SDS011;13848;49.018;12.078;2022-10-18T13:24:53;15.55;;;10.65;;
26082;SDS011;13848;49.018;12.078;2022-10-18T13:27:30;15.80;;;10.73;;
26082;SDS011;13848;49.018;12.078;2022-10-18T13:30:11;15.38;;;9.43;;
26082;SDS011;13848;49.018;12.078;2022-10-18T13:32:51;13.55;;;9.85;;
26082;SDS011;13848;49.018;12.078;2022-10-18T13:35:47;14.50;;;9.77;;
26082;SDS011;13848;49.018;12.078;2022-10-18T13:41:11;16.88;;;10.20;;
26082;SDS011;13848;49.018;12.078;2022-10-18T13:43:58;14.88;;;9.80;;
26082;SDS011;13848;49.018;12.078;2022-10-18T13:47:08;18.23;;;11.32;;
26082;SDS011;13848;49.018;12.078;2022-10-18T13:49:37;16.27;;;10.40;;
26082;SDS011;13848;49.018;12.078;2022-10-18T13:52:20;14.75;;;10.43;;
26082;SDS011;13848;49.018;12.078;2022-10-18T13:54:57;15.32;;;10.57;;
26082;SDS011;13848;49.018;12.078;2022-10-18T13:57:37;16.48;;;10.60;;
26082;SDS011;13848;49.018;12.078;2022-10-18T14:00:23;15.48;;;10.23;;
26082;SDS011;13848;49.018;12.078;2022-10-18T14:06:01;16.75;;;10.40;;
26082;SDS011;13848;49.018;12.078;2022-10-18T14:08:32;16.33;;;10.15;;
26082;SDS011;13848;49.018;12.078;2022-10-18T14:11:02;17.15;;;10.90;;
26082;SDS011;13848;49.018;12.078;2022-10-18T14:13:32;16.23;;;9.77;;
26082;SDS011;13848;49.018;12.078;2022-10-18T14:16:09;15.32;;;10.50;;
26082;SDS011;13848;49.018;12.078;2022-10-18T14:18:47;14.07;;;9.95;;
26082;SDS011;13848;49.018;12.078;2022-10-18T14:21:21;18.98;;;10.00;;
26082;SDS011;13848;49.018;12.078;2022-10-18T14:23:54;15.18;;;9.20;;
26082;SDS011;13848;49.018;12.078;2022-10-18T14:26:20;14.88;;;10.27;;
26082;SDS011;13848;49.018;12.078;2022-10-18T14:29:00;13.35;;;9.43;;
26082;SDS011;13848;49.018;12.078;2022-10-18T14:31:27;15.63;;;9.60;;
26082;SDS011;13848;49.018;12.078;2022-10-18T14:33:55;13.90;;;10.00;;
26082;SDS011;13848;49.018;12.078;2022-10-18T14:36:24;13.63;;;9.32;;
26082;SDS011;13848;49.018;12.078;2022-10-18T14:38:54;15.68;;;9.73;;
26082;SDS011;13848;49.018;12.078;2022-10-18T14:41:22;12.50;;;9.75;;
26082;SDS011;13848;49.018;12.078;2022-10-18T14:43:49;13.05;;;9.65;;
26082;SDS011;13848;49.018;12.078;2022-10-18T14:46:17;12.65;;;9.20;;
26082;SDS011;13848;49.018;12.078;2022-10-18T14:48:55;17.15;;;9.65;;
26082;SDS011;13848;49.018;12.078;2022-10-18T14:51:24;13.30;;;8.98;;
26082;SDS011;13848;49.018;12.078;2022-10-18T14:53:51;15.25;;;9.40;;